createdAt,value
2023-02-09T00:00:12.316Z,18.63
2023-02-09T00:01:44.272Z,21.00
2023-02-09T00:03:16.322Z,20.73
2023-02-09T00:04:48.443Z,23.27
2023-02-09T00:06:22.089Z,22.42
2023-02-09T00:07:54.135Z,20.77
2023-02-09T00:09:26.176Z,24.02
2023-02-09T00:10:58.287Z,22.65
2023-02-09T00:12:48.497Z,22.83
2023-02-09T00:14:22.057Z,26.13
2023-02-09T00:15:57.073Z,25.00
2023-02-09T00:17:29.031Z,27.23
2023-02-09T00:19:01.061Z,23.90
2023-02-09T00:20:33.036Z,27.02
2023-02-09T00:22:05.096Z,27.23
2023-02-09T00:23:39.492Z,21.40
2023-02-09T00:25:11.563Z,22.70
2023-02-09T00:26:43.813Z,24.73
2023-02-09T00:28:15.965Z,22.85
2023-02-09T00:29:48.110Z,21.25
2023-02-09T00:31:20.266Z,18.73
2023-02-09T00:32:52.309Z,17.05
2023-02-09T00:34:24.416Z,16.58
2023-02-09T00:35:59.424Z,14.95
2023-02-09T00:37:31.614Z,16.50
2023-02-09T00:39:03.734Z,17.75
2023-02-09T00:40:35.908Z,14.82
2023-02-09T00:42:08.044Z,17.75
2023-02-09T00:43:40.124Z,16.40
2023-02-09T00:45:12.247Z,14.88
2023-02-09T00:46:44.339Z,13.52
2023-02-09T00:48:16.406Z,16.25
2023-02-09T00:49:48.460Z,16.02
2023-02-09T00:52:52.260Z,16.23
2023-02-09T00:54:24.792Z,16.65
2023-02-09T00:55:57.315Z,20.10
2023-02-09T00:57:29.356Z,15.75
2023-02-09T00:59:01.437Z,17.05
2023-02-09T01:00:33.574Z,18.70
2023-02-09T01:02:05.579Z,15.98
2023-02-09T01:03:37.575Z,16.13
2023-02-09T01:05:09.868Z,15.27
2023-02-09T01:06:42.021Z,15.57
2023-02-09T01:08:14.163Z,14.80
2023-02-09T01:09:46.268Z,14.55
2023-02-09T01:11:18.320Z,14.00
2023-02-09T01:12:50.570Z,19.77
2023-02-09T01:14:22.755Z,18.77
2023-02-09T01:15:54.837Z,16.48
2023-02-09T01:17:26.918Z,17.33
2023-02-09T01:19:03.313Z,17.30
2023-02-09T01:22:16.808Z,12.32
2023-02-09T01:23:49.489Z,14.15
2023-02-09T01:25:21.608Z,17.38
2023-02-09T01:26:53.663Z,14.02
2023-02-09T01:28:25.693Z,11.18
2023-02-09T01:29:57.794Z,13.70
2023-02-09T01:31:35.296Z,15.10
2023-02-09T01:33:07.470Z,14.88
2023-02-09T01:34:39.554Z,16.70
2023-02-09T01:36:11.567Z,17.00
2023-02-09T01:37:43.537Z,15.48
2023-02-09T01:39:15.917Z,19.38
2023-02-09T01:40:49.808Z,20.42
2023-02-09T01:42:22.019Z,21.23
2023-02-09T01:44:06.020Z,20.92
2023-02-09T01:45:54.917Z,17.67
2023-02-09T01:47:26.969Z,16.08
2023-02-09T01:49:07.229Z,14.93
2023-02-09T01:52:14.951Z,15.20
2023-02-09T01:53:47.411Z,14.82
2023-02-09T01:55:23.470Z,16.83
2023-02-09T01:57:02.333Z,16.20
2023-02-09T01:58:34.712Z,15.20
2023-02-09T02:00:12.828Z,17.60
2023-02-09T02:01:45.165Z,16.02
2023-02-09T02:03:20.398Z,16.48
2023-02-09T02:04:53.022Z,15.57
2023-02-09T02:06:25.203Z,13.60
2023-02-09T02:08:05.164Z,14.90
2023-02-09T02:09:37.915Z,15.10
2023-02-09T02:11:10.326Z,17.60
2023-02-09T02:12:42.364Z,17.30
2023-02-09T02:14:35.914Z,14.02
2023-02-09T02:16:32.515Z,21.05
2023-02-09T02:18:21.763Z,18.13
2023-02-09T02:21:29.368Z,17.98
2023-02-09T02:23:18.071Z,17.35
2023-02-09T02:25:17.903Z,17.52
2023-02-09T02:26:59.323Z,19.65
2023-02-09T02:29:20.292Z,15.68
2023-02-09T02:31:36.057Z,17.85
2023-02-09T02:33:37.446Z,15.90
2023-02-09T02:35:37.968Z,18.98
2023-02-09T02:37:33.585Z,15.55
2023-02-09T02:39:26.453Z,15.27
2023-02-09T02:41:10.308Z,16.90
2023-02-09T02:43:03.096Z,15.68
2023-02-09T02:44:36.920Z,14.85
2023-02-09T02:46:21.570Z,16.40
2023-02-09T02:48:01.336Z,10.98
2023-02-09T02:49:43.216Z,16.45
2023-02-09T02:51:25.477Z,12.80
2023-02-09T02:53:00.359Z,14.10
2023-02-09T02:54:35.911Z,14.02
2023-02-09T02:56:12.791Z,15.15
2023-02-09T02:57:49.296Z,15.75
2023-02-09T02:59:25.893Z,14.57
2023-02-09T03:00:59.218Z,13.25
2023-02-09T03:02:34.519Z,14.38
2023-02-09T03:04:07.945Z,12.77
2023-02-09T03:05:40.020Z,14.82
2023-02-09T03:07:12.190Z,16.08
2023-02-09T03:09:02.154Z,17.05
2023-02-09T03:10:39.999Z,17.55
2023-02-09T03:12:39.779Z,12.68
2023-02-09T03:14:11.758Z,17.42
2023-02-09T03:15:58.952Z,15.75
2023-02-09T03:18:02.422Z,15.20
2023-02-09T03:19:37.272Z,14.02
2023-02-09T03:21:20.776Z,13.38
2023-02-09T03:22:59.622Z,14.15
2023-02-09T03:24:42.986Z,14.45
2023-02-09T03:26:18.955Z,19.58
2023-02-09T03:28:03.974Z,14.45
2023-02-09T03:29:38.093Z,13.93
2023-02-09T03:31:10.392Z,15.77
2023-02-09T03:32:44.788Z,20.02
2023-02-09T03:34:17.334Z,16.48
2023-02-09T03:35:51.941Z,15.73
2023-02-09T03:37:24.310Z,19.15
2023-02-09T03:38:57.384Z,20.60
2023-02-09T03:40:29.548Z,21.70
2023-02-09T03:42:01.584Z,19.02
2023-02-09T03:43:52.030Z,18.48
2023-02-09T03:45:24.044Z,17.33
2023-02-09T03:47:01.817Z,19.02
2023-02-09T03:48:35.571Z,14.50
2023-02-09T03:50:07.908Z,12.60
2023-02-09T03:51:39.971Z,14.93
2023-02-09T03:53:12.017Z,13.70
2023-02-09T03:54:44.161Z,15.85
2023-02-09T03:56:16.397Z,15.00
2023-02-09T03:57:48.375Z,16.42
2023-02-09T03:59:21.682Z,14.57
2023-02-09T04:00:53.672Z,13.90
2023-02-09T04:02:25.838Z,14.38
2023-02-09T04:03:58.959Z,14.20
2023-02-09T04:05:30.942Z,14.52
2023-02-09T04:07:03.894Z,15.00
2023-02-09T04:08:36.320Z,13.90
2023-02-09T04:10:08.877Z,13.40
2023-02-09T04:11:40.940Z,12.48
2023-02-09T04:13:12.961Z,16.83
2023-02-09T04:14:45.011Z,13.15
2023-02-09T04:16:18.583Z,12.13
2023-02-09T04:17:50.945Z,13.13
2023-02-09T04:19:23.033Z,17.55
2023-02-09T04:20:55.105Z,14.15
2023-02-09T04:22:27.078Z,16.15
2023-02-09T04:25:32.215Z,13.50
2023-02-09T04:27:04.355Z,14.35
2023-02-09T04:28:36.398Z,14.70
2023-02-09T04:30:09.288Z,15.15
2023-02-09T04:31:41.375Z,13.65
2023-02-09T04:33:13.571Z,15.32
2023-02-09T04:34:45.634Z,13.93
2023-02-09T04:36:17.827Z,13.80
2023-02-09T04:37:49.953Z,12.75
2023-02-09T04:39:22.007Z,14.15
2023-02-09T04:40:55.179Z,14.02
2023-02-09T04:42:27.185Z,14.82
2023-02-09T04:43:59.268Z,15.10
2023-02-09T04:45:31.411Z,13.35
2023-02-09T04:47:03.769Z,15.02
2023-02-09T04:48:35.780Z,15.50
2023-02-09T04:50:08.019Z,16.65
2023-02-09T04:51:40.117Z,17.98
2023-02-09T04:53:12.604Z,17.38
2023-02-09T04:54:44.697Z,13.75
2023-02-09T04:56:17.403Z,15.45
2023-02-09T04:58:08.201Z,21.02
2023-02-09T04:59:42.103Z,14.20
2023-02-09T05:01:21.180Z,15.80
2023-02-09T05:02:54.860Z,16.77
2023-02-09T05:04:27.073Z,13.95
2023-02-09T05:06:01.544Z,16.38
2023-02-09T05:07:33.676Z,17.88
2023-02-09T05:09:05.706Z,16.45
2023-02-09T05:10:37.779Z,18.70
2023-02-09T05:12:10.530Z,17.23
2023-02-09T05:13:43.052Z,13.30
2023-02-09T05:15:15.410Z,17.33
2023-02-09T05:16:47.611Z,15.10
2023-02-09T05:18:19.735Z,15.25
2023-02-09T05:19:51.656Z,14.40
2023-02-09T05:21:23.691Z,14.80
2023-02-09T05:22:55.652Z,17.55
2023-02-09T05:24:27.762Z,16.52
2023-02-09T05:25:59.746Z,15.65
2023-02-09T05:27:31.764Z,16.40
2023-02-09T05:29:04.556Z,17.83
2023-02-09T05:30:37.885Z,19.20
2023-02-09T05:32:09.961Z,17.58
2023-02-09T05:33:41.964Z,13.57
2023-02-09T05:35:14.200Z,18.35
2023-02-09T05:36:47.869Z,16.27
2023-02-09T05:38:19.930Z,18.10
2023-02-09T05:39:52.141Z,17.17
2023-02-09T05:41:42.972Z,15.90
2023-02-09T05:43:15.013Z,15.88
2023-02-09T05:44:48.867Z,14.98
2023-02-09T05:46:21.034Z,17.17
2023-02-09T05:47:53.188Z,17.70
2023-02-09T05:49:25.216Z,16.35
2023-02-09T05:50:57.232Z,16.05
2023-02-09T05:52:29.350Z,16.63
2023-02-09T05:54:01.549Z,17.67
2023-02-09T05:55:33.636Z,18.70
2023-02-09T05:57:06.339Z,21.38
2023-02-09T05:58:38.439Z,18.75
2023-02-09T06:00:12.605Z,18.05
2023-02-09T06:01:45.158Z,13.85
2023-02-09T06:03:17.293Z,18.55
2023-02-09T06:04:49.590Z,15.45
2023-02-09T06:06:21.725Z,20.92
2023-02-09T06:07:54.117Z,14.25
2023-02-09T06:09:26.437Z,17.88
2023-02-09T06:10:58.470Z,20.55
2023-02-09T06:12:30.561Z,19.15
2023-02-09T06:14:02.823Z,23.08
2023-02-09T06:15:35.058Z,22.13
2023-02-09T06:17:07.275Z,24.15
2023-02-09T06:18:39.339Z,24.92
2023-02-09T06:20:12.218Z,23.35
2023-02-09T06:21:44.848Z,21.85
2023-02-09T06:23:16.879Z,22.13
2023-02-09T06:24:48.958Z,20.58
2023-02-09T06:26:23.710Z,18.48
2023-02-09T06:27:58.768Z,16.27
2023-02-09T06:29:31.611Z,17.48
2023-02-09T06:31:03.828Z,18.65
2023-02-09T06:32:35.925Z,22.13
2023-02-09T06:34:09.091Z,22.67
2023-02-09T06:35:41.164Z,18.05
2023-02-09T06:37:13.326Z,18.83
2023-02-09T06:38:45.503Z,26.45
2023-02-09T06:40:17.604Z,26.08
2023-02-09T06:41:49.624Z,25.52
2023-02-09T06:43:21.848Z,29.35
2023-02-09T06:44:54.025Z,25.65
2023-02-09T06:46:26.091Z,28.48
2023-02-09T06:47:58.237Z,28.88
2023-02-09T06:49:30.624Z,33.60
2023-02-09T06:51:02.849Z,29.65
2023-02-09T06:52:34.976Z,29.92
2023-02-09T06:54:07.032Z,33.80
2023-02-09T06:55:39.323Z,35.88
2023-02-09T06:57:11.402Z,36.63
2023-02-09T06:58:43.475Z,35.30
2023-02-09T07:00:16.514Z,40.50
2023-02-09T07:01:54.723Z,42.00
2023-02-09T07:03:27.194Z,34.83
2023-02-09T07:04:59.367Z,52.35
2023-02-09T07:06:31.525Z,44.72
2023-02-09T07:08:04.027Z,45.10
2023-02-09T07:09:36.171Z,49.08
2023-02-09T07:11:11.024Z,45.50
2023-02-09T07:12:45.816Z,39.92
2023-02-09T07:14:20.528Z,44.38
2023-02-09T07:15:57.477Z,49.05
2023-02-09T07:17:32.540Z,48.15
2023-02-09T07:19:04.603Z,46.40
2023-02-09T07:20:36.660Z,50.75
2023-02-09T07:22:08.800Z,44.72
2023-02-09T07:23:40.903Z,40.30
2023-02-09T07:25:13.108Z,33.53
2023-02-09T07:26:45.175Z,33.72
2023-02-09T07:29:50.348Z,24.00
2023-02-09T07:31:22.771Z,22.88
2023-02-09T07:32:55.002Z,25.45
2023-02-09T07:34:27.052Z,24.85
2023-02-09T07:35:59.411Z,20.48
2023-02-09T07:37:31.953Z,23.45
2023-02-09T07:39:04.169Z,22.77
2023-02-09T07:40:38.515Z,22.30
2023-02-09T07:42:10.671Z,23.33
2023-02-09T07:43:43.119Z,21.08
2023-02-09T07:45:15.862Z,18.25
2023-02-09T07:46:48.062Z,20.67
2023-02-09T07:48:20.216Z,18.60
2023-02-09T07:49:52.272Z,18.52
2023-02-09T07:51:25.683Z,16.27
2023-02-09T07:52:57.709Z,18.00
2023-02-09T07:54:29.771Z,16.13
2023-02-09T07:56:01.940Z,18.05
2023-02-09T07:57:33.888Z,15.23
2023-02-09T07:59:06.861Z,20.17
2023-02-09T08:00:38.908Z,18.13
2023-02-09T08:02:19.126Z,19.80
2023-02-09T08:03:51.182Z,18.42
2023-02-09T08:06:08.038Z,19.75
2023-02-09T08:07:40.616Z,22.63
2023-02-09T08:09:15.666Z,19.48
2023-02-09T08:10:47.711Z,14.82
2023-02-09T08:12:21.030Z,17.42
2023-02-09T08:13:54.865Z,16.08
2023-02-09T08:15:39.147Z,18.08
2023-02-09T08:17:24.541Z,17.58
2023-02-09T08:19:00.097Z,17.70
2023-02-09T08:20:32.641Z,17.55
2023-02-09T08:22:07.835Z,16.73
2023-02-09T08:23:40.670Z,18.55
2023-02-09T08:25:17.438Z,18.80
2023-02-09T08:26:49.728Z,17.33
2023-02-09T08:28:31.850Z,17.83
2023-02-09T08:30:11.692Z,16.50
2023-02-09T08:31:43.860Z,16.05
2023-02-09T08:33:16.326Z,16.42
2023-02-09T08:34:48.479Z,15.68
2023-02-09T08:36:21.214Z,16.00
2023-02-09T08:37:53.505Z,21.67
2023-02-09T08:39:25.620Z,18.73
2023-02-09T08:40:57.681Z,18.23
2023-02-09T08:42:29.739Z,16.77
2023-02-09T08:44:02.131Z,22.08
2023-02-09T08:45:39.824Z,17.95
2023-02-09T08:47:12.078Z,18.70
2023-02-09T08:48:45.644Z,17.85
2023-02-09T08:51:49.657Z,17.58
2023-02-09T08:53:21.770Z,16.90
2023-02-09T08:54:54.453Z,19.52
2023-02-09T08:56:26.509Z,18.00
2023-02-09T08:57:58.646Z,18.05
2023-02-09T08:59:30.956Z,16.75
2023-02-09T09:01:03.521Z,14.88
2023-02-09T09:02:36.223Z,19.80
2023-02-09T09:04:08.347Z,14.43
2023-02-09T09:05:40.578Z,17.75
2023-02-09T09:07:13.044Z,17.08
2023-02-09T09:08:45.441Z,16.35
2023-02-09T09:10:17.976Z,15.20
2023-02-09T09:11:50.124Z,15.30
2023-02-09T09:13:24.524Z,20.38
2023-02-09T09:14:56.805Z,14.45
2023-02-09T09:16:28.895Z,13.23
2023-02-09T09:18:01.030Z,18.27
2023-02-09T09:19:33.074Z,15.98
2023-02-09T09:21:05.514Z,14.40
2023-02-09T09:22:37.604Z,16.27
2023-02-09T09:24:09.815Z,16.27
2023-02-09T09:25:42.645Z,15.55
2023-02-09T09:27:14.944Z,16.75
2023-02-09T09:28:50.462Z,16.67
2023-02-09T09:30:22.854Z,16.23
2023-02-09T09:31:55.119Z,16.63
2023-02-09T09:33:27.354Z,16.40
2023-02-09T09:34:59.869Z,14.32
2023-02-09T09:36:32.213Z,14.07
2023-02-09T09:38:05.071Z,16.20
2023-02-09T09:39:37.122Z,14.80
2023-02-09T09:41:25.349Z,16.08
2023-02-09T09:43:05.667Z,13.43
2023-02-09T09:44:42.117Z,11.63
2023-02-09T09:46:20.903Z,15.55
2023-02-09T09:47:53.212Z,14.65
2023-02-09T09:49:27.842Z,14.30
2023-02-09T09:51:07.424Z,15.80
2023-02-09T09:52:41.406Z,15.35
2023-02-09T09:54:16.897Z,16.73
2023-02-09T09:55:52.480Z,14.98
2023-02-09T09:57:31.737Z,15.57
2023-02-09T09:59:04.025Z,14.80
2023-02-09T10:00:40.064Z,17.15
2023-02-09T10:02:27.502Z,15.32
2023-02-09T10:04:01.783Z,15.48
2023-02-09T10:05:39.373Z,14.27
2023-02-09T10:07:19.585Z,15.43
2023-02-09T10:09:02.082Z,14.70
2023-02-09T10:10:39.681Z,14.75
2023-02-09T10:12:34.648Z,14.50
2023-02-09T10:14:07.176Z,13.73
2023-02-09T10:15:39.522Z,12.85
2023-02-09T10:17:11.587Z,14.43
2023-02-09T10:18:46.299Z,14.80
2023-02-09T10:20:18.578Z,13.52
2023-02-09T10:21:50.826Z,14.85
2023-02-09T10:23:47.678Z,13.75
2023-02-09T10:25:35.086Z,16.67
2023-02-09T10:27:16.209Z,12.68
2023-02-09T10:28:54.076Z,14.52
2023-02-09T10:30:29.119Z,13.18
2023-02-09T10:33:42.661Z,12.48
2023-02-09T10:35:27.324Z,13.73
2023-02-09T10:37:19.362Z,11.90
2023-02-09T10:38:52.129Z,14.68
2023-02-09T10:40:29.475Z,12.98
2023-02-09T10:42:32.203Z,13.00
2023-02-09T10:44:36.350Z,13.52
2023-02-09T10:46:15.697Z,12.45
2023-02-09T10:48:02.598Z,13.52
2023-02-09T10:49:36.473Z,13.32
2023-02-09T10:51:15.411Z,14.82
2023-02-09T10:53:02.257Z,12.95
2023-02-09T10:54:34.418Z,12.98
2023-02-09T10:56:19.197Z,13.77
2023-02-09T10:57:51.375Z,12.93
2023-02-09T10:59:25.155Z,12.70
2023-02-09T11:01:09.471Z,11.80
2023-02-09T11:02:52.724Z,14.23
2023-02-09T11:04:27.418Z,13.07
2023-02-09T11:06:10.350Z,10.88
2023-02-09T11:07:42.572Z,12.85
2023-02-09T11:09:17.969Z,12.40
2023-02-09T11:10:54.284Z,12.82
2023-02-09T11:12:27.985Z,14.23
2023-02-09T11:14:00.450Z,12.95
2023-02-09T11:15:39.129Z,14.10
2023-02-09T11:17:15.490Z,12.65
2023-02-09T11:18:58.661Z,14.50
2023-02-09T11:20:38.914Z,14.10
2023-02-09T11:22:52.300Z,11.70
2023-02-09T11:24:47.444Z,14.25
2023-02-09T11:26:39.842Z,11.95
2023-02-09T11:28:31.305Z,11.80
2023-02-09T11:30:09.402Z,13.10
2023-02-09T11:31:48.841Z,16.63
2023-02-09T11:33:51.732Z,12.85
2023-02-09T11:35:27.248Z,11.10
2023-02-09T11:37:27.728Z,14.90
2023-02-09T11:39:02.339Z,11.02
2023-02-09T11:40:42.631Z,11.85
2023-02-09T11:42:37.342Z,12.98
2023-02-09T11:44:17.473Z,12.80
2023-02-09T11:45:51.462Z,14.75
2023-02-09T11:47:42.386Z,12.98
2023-02-09T11:49:19.231Z,12.57
2023-02-09T11:51:12.394Z,14.60
2023-02-09T11:52:53.381Z,15.10
2023-02-09T11:54:28.968Z,16.45
2023-02-09T11:56:04.043Z,15.38
2023-02-09T11:57:50.031Z,11.68
2023-02-09T11:59:34.905Z,14.02
2023-02-09T12:01:25.572Z,14.80
2023-02-09T12:03:08.057Z,14.32
2023-02-09T12:05:01.567Z,12.27
2023-02-09T12:06:40.590Z,13.82
2023-02-09T12:08:27.317Z,12.48
2023-02-09T12:10:11.490Z,14.40
2023-02-09T12:12:20.020Z,13.88
2023-02-09T12:14:17.138Z,13.15
2023-02-09T12:15:57.965Z,13.20
2023-02-09T12:17:51.143Z,12.40
2023-02-09T12:19:46.712Z,14.10
2023-02-09T12:21:32.767Z,12.05
2023-02-09T12:23:26.532Z,13.57
2023-02-09T12:25:23.051Z,13.85
2023-02-09T12:26:56.828Z,12.68
2023-02-09T12:28:31.688Z,13.32
2023-02-09T12:32:04.759Z,14.10
2023-02-09T12:33:39.133Z,15.00
2023-02-09T12:35:26.220Z,12.68
2023-02-09T12:37:19.694Z,15.52
2023-02-09T12:38:56.552Z,12.85
2023-02-09T12:40:37.313Z,13.10
2023-02-09T12:42:09.260Z,11.82
2023-02-09T12:43:41.982Z,12.43
2023-02-09T12:45:36.380Z,14.77
2023-02-09T12:47:42.160Z,12.73
2023-02-09T12:49:14.296Z,14.40
2023-02-09T12:50:54.288Z,12.98
2023-02-09T12:52:26.279Z,15.52
2023-02-09T12:53:58.312Z,13.80
2023-02-09T12:55:30.910Z,15.93
2023-02-09T12:57:20.773Z,14.57
2023-02-09T12:58:52.762Z,16.05
2023-02-09T13:00:32.267Z,13.43
2023-02-09T13:02:04.262Z,13.55
2023-02-09T13:03:47.879Z,13.68
2023-02-09T13:05:34.054Z,14.88
2023-02-09T13:07:12.429Z,14.55
2023-02-09T13:08:53.718Z,13.52
2023-02-09T13:10:47.338Z,13.18
2023-02-09T13:12:24.072Z,13.32
2023-02-09T13:14:03.587Z,14.45
2023-02-09T13:16:01.791Z,14.52
2023-02-09T13:18:12.409Z,12.40
2023-02-09T13:20:29.438Z,11.13
2023-02-09T13:22:28.644Z,15.18
2023-02-09T13:24:07.706Z,13.85
2023-02-09T13:25:40.532Z,15.40
2023-02-09T13:27:24.172Z,13.50
2023-02-09T13:29:19.376Z,15.75
2023-02-09T13:30:53.072Z,15.48
2023-02-09T13:32:50.905Z,13.63
2023-02-09T13:34:33.253Z,12.23
2023-02-09T13:36:25.449Z,12.32
2023-02-09T13:37:59.785Z,13.13
2023-02-09T13:39:37.802Z,13.05
2023-02-09T13:41:25.739Z,13.43
2023-02-09T13:43:29.776Z,12.80
2023-02-09T13:45:02.153Z,12.68
2023-02-09T13:46:37.325Z,13.80
2023-02-09T13:48:22.282Z,14.35
2023-02-09T13:49:59.475Z,12.48
2023-02-09T13:51:31.534Z,15.02
2023-02-09T13:53:10.673Z,14.68
2023-02-09T13:54:43.862Z,14.85
2023-02-09T13:56:16.045Z,15.07
2023-02-09T13:57:58.316Z,14.38
2023-02-09T13:59:30.555Z,13.63
2023-02-09T14:01:12.648Z,11.55
2023-02-09T14:02:50.346Z,11.98
2023-02-09T14:06:36.676Z,16.30
2023-02-09T14:08:09.422Z,13.25
2023-02-09T14:09:45.424Z,11.23
2023-02-09T14:11:44.112Z,14.20
2023-02-09T14:13:16.155Z,14.82
2023-02-09T14:15:13.560Z,14.32
2023-02-09T14:16:53.555Z,13.32
2023-02-09T14:18:30.692Z,16.38
2023-02-09T14:20:03.628Z,15.15
2023-02-09T14:21:37.784Z,15.20
2023-02-09T14:23:15.997Z,14.50
2023-02-09T14:24:48.047Z,16.58
2023-02-09T14:26:33.461Z,13.93
2023-02-09T14:28:05.687Z,14.20
2023-02-09T14:29:38.455Z,12.05
2023-02-09T14:34:38.437Z,15.43
2023-02-09T14:36:32.908Z,13.80
2023-02-09T14:38:04.953Z,15.80
2023-02-09T14:39:53.381Z,16.08
2023-02-09T14:41:33.774Z,17.08
2023-02-09T14:43:11.858Z,15.40
2023-02-09T14:45:15.782Z,14.57
2023-02-09T14:46:59.356Z,17.27
2023-02-09T14:48:33.746Z,18.27
2023-02-09T14:50:15.823Z,15.68
2023-02-09T14:51:49.430Z,16.52
2023-02-09T14:54:53.848Z,15.25
2023-02-09T14:56:31.519Z,16.33
2023-02-09T14:58:11.499Z,15.10
2023-02-09T14:59:43.623Z,15.98
2023-02-09T15:01:15.849Z,17.92
2023-02-09T15:02:49.225Z,14.90
2023-02-09T15:04:21.588Z,15.70
2023-02-09T15:05:59.186Z,15.27
2023-02-09T15:07:38.074Z,13.40
2023-02-09T15:09:13.179Z,15.60
2023-02-09T15:10:48.062Z,15.10
2023-02-09T15:12:27.287Z,14.85
2023-02-09T15:14:06.807Z,15.50
2023-02-09T15:15:40.054Z,15.73
2023-02-09T15:17:20.822Z,14.70
2023-02-09T15:18:52.990Z,15.40
2023-02-09T15:20:25.806Z,15.85
2023-02-09T15:22:06.981Z,15.90
2023-02-09T15:23:40.067Z,15.45
2023-02-09T15:25:14.448Z,17.10
2023-02-09T15:26:46.535Z,15.18
2023-02-09T15:28:28.833Z,14.27
2023-02-09T15:30:04.289Z,16.20
2023-02-09T15:31:36.920Z,15.93
2023-02-09T15:33:12.844Z,16.23
2023-02-09T15:34:45.151Z,17.50
2023-02-09T15:36:21.146Z,19.42
2023-02-09T15:37:55.668Z,14.90
2023-02-09T15:39:31.696Z,14.95
2023-02-09T15:41:22.208Z,16.00
2023-02-09T15:43:12.774Z,17.70
2023-02-09T15:45:03.712Z,18.67
2023-02-09T15:46:55.603Z,16.83
2023-02-09T15:48:27.653Z,16.23
2023-02-09T15:49:59.635Z,15.68
2023-02-09T15:51:34.319Z,16.92
2023-02-09T15:53:08.812Z,15.88
2023-02-09T15:54:41.196Z,17.05
2023-02-09T15:56:14.076Z,17.40
2023-02-09T15:57:46.473Z,17.17
2023-02-09T15:59:20.496Z,14.07
2023-02-09T16:00:52.494Z,16.05
2023-02-09T16:02:25.920Z,14.88
2023-02-09T16:04:12.713Z,21.08
2023-02-09T16:05:47.392Z,18.42
2023-02-09T16:08:53.832Z,15.60
2023-02-09T16:10:29.038Z,16.23
2023-02-09T16:12:01.038Z,15.48
2023-02-09T16:13:33.110Z,17.15
2023-02-09T16:15:14.607Z,16.85
2023-02-09T16:16:47.535Z,14.75
2023-02-09T16:18:19.762Z,17.88
2023-02-09T16:19:51.942Z,14.05
2023-02-09T16:21:24.683Z,15.75
2023-02-09T16:22:57.722Z,17.55
2023-02-09T16:24:33.842Z,18.95
2023-02-09T16:26:06.673Z,18.23
2023-02-09T16:27:38.840Z,17.38
2023-02-09T16:29:15.397Z,17.95
2023-02-09T16:30:52.347Z,21.42
2023-02-09T16:32:25.384Z,17.58
2023-02-09T16:33:57.449Z,16.55
2023-02-09T16:35:31.141Z,15.85
2023-02-09T16:37:04.297Z,14.88
2023-02-09T16:38:36.260Z,16.80
2023-02-09T16:40:17.138Z,19.55
2023-02-09T16:41:53.056Z,27.38
2023-02-09T16:43:25.265Z,27.67
2023-02-09T16:44:57.560Z,34.25
2023-02-09T16:46:31.068Z,33.50
2023-02-09T16:49:38.194Z,23.70
2023-02-09T16:51:13.411Z,39.63
2023-02-09T16:52:45.485Z,28.52
2023-02-09T16:54:17.557Z,28.13
2023-02-09T16:55:50.086Z,33.38
2023-02-09T16:57:25.887Z,23.40
2023-02-09T16:58:57.928Z,20.20
2023-02-09T17:00:38.048Z,17.77
2023-02-09T17:02:39.732Z,32.92
2023-02-09T17:04:14.117Z,38.17
2023-02-09T17:05:49.118Z,24.33
2023-02-09T17:07:23.193Z,34.85
2023-02-09T17:08:56.915Z,40.63
2023-02-09T17:10:32.446Z,23.48
2023-02-09T17:12:04.614Z,20.90
2023-02-09T17:13:36.875Z,17.83
2023-02-09T17:15:27.503Z,23.02
2023-02-09T17:17:02.594Z,16.75
2023-02-09T17:18:39.563Z,21.27
2023-02-09T17:20:16.649Z,15.27
2023-02-09T17:21:48.862Z,17.75
2023-02-09T17:23:23.612Z,18.60
2023-02-09T17:24:55.735Z,18.80
2023-02-09T17:26:28.575Z,16.52
2023-02-09T17:28:00.642Z,18.00
2023-02-09T17:29:34.202Z,16.35
2023-02-09T17:32:58.960Z,30.83
2023-02-09T17:34:31.087Z,37.38
2023-02-09T17:36:25.363Z,40.03
2023-02-09T17:37:55.401Z,28.02
2023-02-09T17:39:28.964Z,26.77
2023-02-09T17:41:08.806Z,28.70
2023-02-09T17:42:41.398Z,33.92
2023-02-09T17:44:26.403Z,27.13
2023-02-09T17:46:00.949Z,28.98
2023-02-09T17:47:33.045Z,30.42
2023-02-09T17:49:05.080Z,52.85
2023-02-09T17:50:38.072Z,45.15
2023-02-09T17:52:18.211Z,27.98
2023-02-09T17:53:50.382Z,27.17
2023-02-09T17:55:26.484Z,33.70
2023-02-09T17:56:58.479Z,33.63
2023-02-09T17:58:30.577Z,39.88
2023-02-09T18:00:02.942Z,36.70
2023-02-09T18:01:46.319Z,39.53
2023-02-09T18:03:21.615Z,41.33
2023-02-09T18:04:54.319Z,38.45
2023-02-09T18:07:58.205Z,34.47
2023-02-09T18:09:30.294Z,42.28
2023-02-09T18:11:02.337Z,47.88
2023-02-09T18:12:34.394Z,29.92
2023-02-09T18:14:06.482Z,36.35
2023-02-09T18:15:40.782Z,34.47
2023-02-09T18:17:12.913Z,31.17
2023-02-09T18:18:47.233Z,27.38
2023-02-09T18:20:22.074Z,19.48
2023-02-09T18:22:00.280Z,26.70
2023-02-09T18:23:32.351Z,22.80
2023-02-09T18:25:04.453Z,38.20
2023-02-09T18:26:36.556Z,49.42
2023-02-09T18:28:08.848Z,24.95
2023-02-09T18:29:40.982Z,18.48
2023-02-09T18:31:16.565Z,19.02
2023-02-09T18:32:48.999Z,18.60
2023-02-09T18:34:21.102Z,19.52
2023-02-09T18:35:53.204Z,17.27
2023-02-09T18:37:25.294Z,16.45
2023-02-09T18:38:57.229Z,16.95
2023-02-09T18:40:29.810Z,17.92
2023-02-09T18:42:01.873Z,22.17
2023-02-09T18:43:33.899Z,18.63
2023-02-09T18:45:06.238Z,20.10
2023-02-09T18:46:38.282Z,18.83
2023-02-09T18:48:11.242Z,21.48
2023-02-09T18:49:43.278Z,18.77
2023-02-09T18:51:17.584Z,19.42
2023-02-09T18:52:52.507Z,16.40
2023-02-09T18:54:24.569Z,18.25
2023-02-09T18:55:56.779Z,20.23
2023-02-09T18:57:28.854Z,17.10
2023-02-09T18:59:00.952Z,17.35
2023-02-09T19:00:33.480Z,18.17
2023-02-09T19:02:05.782Z,16.85
2023-02-09T19:03:37.898Z,18.15
2023-02-09T19:05:10.238Z,19.80
2023-02-09T19:06:42.423Z,21.40
2023-02-09T19:08:14.868Z,21.48
2023-02-09T19:09:46.961Z,26.83
2023-02-09T19:11:21.646Z,31.63
2023-02-09T19:12:54.611Z,30.70
2023-02-09T19:14:38.912Z,26.73
2023-02-09T19:16:12.358Z,22.08
2023-02-09T19:17:45.233Z,21.58
2023-02-09T19:19:19.787Z,50.25
2023-02-09T19:20:55.894Z,50.00
2023-02-09T19:22:28.135Z,40.70
2023-02-09T19:24:00.269Z,28.02
2023-02-09T19:25:33.439Z,25.95
2023-02-09T19:27:07.100Z,37.78
2023-02-09T19:28:39.059Z,34.17
2023-02-09T19:30:14.354Z,26.05
2023-02-09T19:31:46.866Z,30.27
2023-02-09T19:33:18.916Z,20.10
2023-02-09T19:34:51.217Z,17.95
2023-02-09T19:36:24.638Z,20.95
2023-02-09T19:37:58.151Z,17.13
2023-02-09T19:42:42.999Z,16.77
2023-02-09T19:44:15.729Z,18.90
2023-02-09T19:45:56.297Z,13.20
2023-02-09T19:47:28.396Z,20.15
2023-02-09T19:49:01.262Z,16.77
2023-02-09T19:50:33.994Z,16.58
2023-02-09T19:52:06.668Z,17.45
2023-02-09T19:53:41.485Z,19.52
2023-02-09T19:55:14.319Z,17.77
2023-02-09T19:56:46.372Z,20.63
2023-02-09T19:58:21.696Z,20.15
2023-02-09T19:59:54.171Z,17.98
2023-02-09T20:01:27.194Z,18.00
2023-02-09T20:03:01.790Z,24.85
2023-02-09T20:04:35.170Z,18.15
2023-02-09T20:06:09.723Z,19.65
2023-02-09T20:07:42.011Z,17.42
2023-02-09T20:09:14.104Z,16.60
2023-02-09T20:10:46.680Z,14.85
2023-02-09T20:12:21.835Z,16.45
2023-02-09T20:13:54.850Z,14.27
2023-02-09T20:15:27.270Z,18.75
2023-02-09T20:16:59.326Z,16.33
2023-02-09T20:18:31.592Z,18.13
2023-02-09T20:20:04.557Z,17.92
2023-02-09T20:21:40.311Z,14.73
2023-02-09T20:23:12.330Z,19.05
2023-02-09T20:24:44.546Z,18.55
2023-02-09T20:26:19.318Z,17.52
2023-02-09T20:27:51.851Z,17.33
2023-02-09T20:29:23.970Z,17.23
2023-02-09T20:30:56.018Z,15.60
2023-02-09T20:32:29.199Z,15.88
2023-02-09T20:34:05.383Z,16.35
2023-02-09T20:37:10.814Z,20.42
2023-02-09T20:38:42.994Z,15.32
2023-02-09T20:40:15.225Z,15.40
2023-02-09T20:42:06.731Z,13.98
2023-02-09T20:43:58.141Z,16.83
2023-02-09T20:45:48.775Z,19.67
2023-02-09T20:47:20.791Z,16.50
2023-02-09T20:48:52.926Z,16.70
2023-02-09T20:50:25.071Z,17.05
2023-02-09T20:51:58.311Z,22.35
2023-02-09T20:53:30.330Z,19.67
2023-02-09T20:55:02.654Z,16.30
2023-02-09T20:56:37.730Z,17.08
2023-02-09T20:58:12.144Z,17.00
2023-02-09T20:59:44.393Z,19.05
2023-02-09T21:01:16.826Z,16.77
2023-02-09T21:02:48.951Z,17.92
2023-02-09T21:04:21.011Z,19.13
2023-02-09T21:05:53.051Z,21.20
2023-02-09T21:07:25.840Z,19.02
2023-02-09T21:08:57.805Z,19.42
2023-02-09T21:10:29.834Z,21.70
2023-02-09T21:12:01.874Z,21.02
2023-02-09T21:13:33.952Z,20.70